sensor_id;sensor_type;location;lat;lon;timestamp;pressure;altitude;pressure_sealevel;temperature;humidity
34983;BME280;21187;50.976;13.720;2023-06-14T00:03:25;98224.81;;;16.98;42.37
34983;BME280;21187;50.976;13.720;2023-06-14T00:08:27;98211.53;;;16.89;42.50
34983;BME280;21187;50.976;13.720;2023-06-14T00:13:29;98220.13;;;16.80;42.45
34983;BME280;21187;50.976;13.720;2023-06-14T00:18:31;98222.44;;;16.71;42.81
34983;BME280;21187;50.976;13.720;2023-06-14T00:23:33;98218.94;;;16.63;42.67
34983;BME280;21187;50.976;13.720;2023-06-14T00:28:35;98215.41;;;16.56;42.94
34983;BME280;21187;50.976;13.720;2023-06-14T00:33:39;98204.47;;;16.49;43.06
34983;BME280;21187;50.976;13.720;2023-06-14T00:38:41;98206.00;;;16.42;43.12
34983;BME280;21187;50.976;13.720;2023-06-14T00:43:43;98206.78;;;16.39;43.07
34983;BME280;21187;50.976;13.720;2023-06-14T00:48:45;98206.00;;;16.35;42.98
34983;BME280;21187;50.976;13.720;2023-06-14T00:53:48;98214.94;;;16.28;43.38
34983;BME280;21187;50.976;13.720;2023-06-14T00:58:51;98207.50;;;16.22;43.54
34983;BME280;21187;50.976;13.720;2023-06-14T01:03:53;98212.56;;;16.12;43.53
34983;BME280;21187;50.976;13.720;2023-06-14T01:14:11;98210.56;;;15.95;43.62
34983;BME280;21187;50.976;13.720;2023-06-14T01:19:15;98216.81;;;15.92;43.89
34983;BME280;21187;50.976;13.720;2023-06-14T01:24:17;98208.22;;;15.93;43.64
34983;BME280;21187;50.976;13.720;2023-06-14T01:29:26;98206.66;;;15.96;43.95
34983;BME280;21187;50.976;13.720;2023-06-14T01:34:34;98209.34;;;15.89;43.69
34983;BME280;21187;50.976;13.720;2023-06-14T01:39:37;98205.78;;;15.77;43.97
34983;BME280;21187;50.976;13.720;2023-06-14T01:44:40;98196.38;;;15.64;44.22
34983;BME280;21187;50.976;13.720;2023-06-14T01:49:43;98194.38;;;15.54;44.41
34983;BME280;21187;50.976;13.720;2023-06-14T01:54:45;98193.16;;;15.47;44.82
34983;BME280;21187;50.976;13.720;2023-06-14T01:59:47;98187.69;;;15.40;44.79
34983;BME280;21187;50.976;13.720;2023-06-14T02:04:50;98195.06;;;15.36;44.60
34983;BME280;21187;50.976;13.720;2023-06-14T02:09:52;98212.19;;;15.33;44.94
34983;BME280;21187;50.976;13.720;2023-06-14T02:14:54;98206.69;;;15.29;44.99
34983;BME280;21187;50.976;13.720;2023-06-14T02:19:57;98208.59;;;15.22;44.98
34983;BME280;21187;50.976;13.720;2023-06-14T02:25:00;98203.84;;;15.11;45.31
34983;BME280;21187;50.976;13.720;2023-06-14T02:30:03;98206.13;;;15.02;45.37
34983;BME280;21187;50.976;13.720;2023-06-14T02:35:07;98208.84;;;15.02;45.61
34983;BME280;21187;50.976;13.720;2023-06-14T02:40:09;98208.44;;;15.00;45.41
34983;BME280;21187;50.976;13.720;2023-06-14T02:45:11;98215.88;;;15.03;45.40
34983;BME280;21187;50.976;13.720;2023-06-14T02:50:13;98211.94;;;14.97;45.68
34983;BME280;21187;50.976;13.720;2023-06-14T02:55:16;98219.22;;;14.86;45.83
34983;BME280;21187;50.976;13.720;2023-06-14T03:00:18;98215.28;;;14.76;45.61
34983;BME280;21187;50.976;13.720;2023-06-14T03:05:22;98218.28;;;14.67;46.08
34983;BME280;21187;50.976;13.720;2023-06-14T03:10:25;98216.94;;;14.46;46.50
34983;BME280;21187;50.976;13.720;2023-06-14T03:15:33;98212.41;;;14.24;47.32
34983;BME280;21187;50.976;13.720;2023-06-14T03:20:36;98217.94;;;14.31;47.37
34983;BME280;21187;50.976;13.720;2023-06-14T03:25:40;98222.72;;;14.45;46.93
34983;BME280;21187;50.976;13.720;2023-06-14T03:30:46;98236.81;;;14.51;47.00
34983;BME280;21187;50.976;13.720;2023-06-14T03:35:49;98237.50;;;14.40;47.37
34983;BME280;21187;50.976;13.720;2023-06-14T03:40:51;98241.84;;;14.48;47.24
34983;BME280;21187;50.976;13.720;2023-06-14T03:45:53;98243.91;;;14.59;47.30
34983;BME280;21187;50.976;13.720;2023-06-14T03:50:57;98259.16;;;14.63;47.33
34983;BME280;21187;50.976;13.720;2023-06-14T03:56:03;98255.22;;;14.61;47.22
34983;BME280;21187;50.976;13.720;2023-06-14T04:01:13;98258.03;;;14.68;46.93
34983;BME280;21187;50.976;13.720;2023-06-14T04:06:16;98277.59;;;14.77;47.00
34983;BME280;21187;50.976;13.720;2023-06-14T04:11:22;98270.28;;;14.85;47.11
34983;BME280;21187;50.976;13.720;2023-06-14T04:16:24;98271.84;;;14.90;47.04
34983;BME280;21187;50.976;13.720;2023-06-14T04:21:26;98273.91;;;15.00;47.59
34983;BME280;21187;50.976;13.720;2023-06-14T04:26:33;98277.09;;;15.09;47.62
34983;BME280;21187;50.976;13.720;2023-06-14T04:31:36;98278.31;;;15.16;47.62
34983;BME280;21187;50.976;13.720;2023-06-14T04:36:44;98282.66;;;15.24;47.46
34983;BME280;21187;50.976;13.720;2023-06-14T04:41:58;98286.84;;;15.10;48.18
34983;BME280;21187;50.976;13.720;2023-06-14T04:47:03;98284.75;;;14.93;49.16
34983;BME280;21187;50.976;13.720;2023-06-14T04:52:06;98296.00;;;14.88;49.59
34983;BME280;21187;50.976;13.720;2023-06-14T04:57:11;98295.75;;;15.04;49.26
34983;BME280;21187;50.976;13.720;2023-06-14T05:02:23;98304.09;;;15.25;48.73
34983;BME280;21187;50.976;13.720;2023-06-14T05:07:28;98308.47;;;15.37;48.96
34983;BME280;21187;50.976;13.720;2023-06-14T05:12:31;98312.97;;;15.60;48.76
34983;BME280;21187;50.976;13.720;2023-06-14T05:17:33;98323.19;;;15.77;48.41
34983;BME280;21187;50.976;13.720;2023-06-14T05:22:37;98322.88;;;15.83;47.98
34983;BME280;21187;50.976;13.720;2023-06-14T05:27:39;98323.31;;;15.92;48.04
34983;BME280;21187;50.976;13.720;2023-06-14T05:32:43;98322.97;;;16.04;48.18
34983;BME280;21187;50.976;13.720;2023-06-14T05:37:45;98317.22;;;16.17;48.19
34983;BME280;21187;50.976;13.720;2023-06-14T05:42:47;98327.03;;;16.36;47.80
34983;BME280;21187;50.976;13.720;2023-06-14T05:47:49;98321.63;;;16.54;47.59
34983;BME280;21187;50.976;13.720;2023-06-14T05:52:53;98327.53;;;16.74;47.82
34983;BME280;21187;50.976;13.720;2023-06-14T05:57:55;98335.03;;;16.95;47.74
34983;BME280;21187;50.976;13.720;2023-06-14T06:02:57;98324.91;;;17.13;47.18
34983;BME280;21187;50.976;13.720;2023-06-14T06:07:59;98330.38;;;17.35;47.25
34983;BME280;21187;50.976;13.720;2023-06-14T06:13:02;98329.59;;;17.53;46.97
34983;BME280;21187;50.976;13.720;2023-06-14T06:18:03;98337.41;;;17.65;46.85
34983;BME280;21187;50.976;13.720;2023-06-14T06:23:05;98346.78;;;17.86;46.75
34983;BME280;21187;50.976;13.720;2023-06-14T06:28:07;98357.72;;;18.07;46.53
34983;BME280;21187;50.976;13.720;2023-06-14T06:33:09;98363.50;;;18.35;46.26
34983;BME280;21187;50.976;13.720;2023-06-14T06:38:12;98368.50;;;18.58;45.99
34983;BME280;21187;50.976;13.720;2023-06-14T06:43:14;98368.06;;;18.70;45.83
34983;BME280;21187;50.976;13.720;2023-06-14T06:48:20;98367.59;;;18.90;45.68
34983;BME280;21187;50.976;13.720;2023-06-14T06:53:22;98369.81;;;19.13;45.33
34983;BME280;21187;50.976;13.720;2023-06-14T06:58:40;98367.28;;;19.37;44.98
34983;BME280;21187;50.976;13.720;2023-06-14T07:03:43;98357.72;;;19.56;44.76
34983;BME280;21187;50.976;13.720;2023-06-14T07:08:45;98357.53;;;19.77;44.54
34983;BME280;21187;50.976;13.720;2023-06-14T07:13:49;98362.06;;;19.99;44.28
34983;BME280;21187;50.976;13.720;2023-06-14T07:18:52;98373.97;;;19.85;43.83
34983;BME280;21187;50.976;13.720;2023-06-14T07:23:54;98373.16;;;19.88;43.87
34983;BME280;21187;50.976;13.720;2023-06-14T07:28:56;98369.38;;;20.13;43.47
34983;BME280;21187;50.976;13.720;2023-06-14T07:33:58;98370.78;;;20.28;43.00
34983;BME280;21187;50.976;13.720;2023-06-14T07:39:00;98367.97;;;20.35;42.67
34983;BME280;21187;50.976;13.720;2023-06-14T07:44:04;98377.84;;;20.60;42.35
34983;BME280;21187;50.976;13.720;2023-06-14T07:49:07;98386.31;;;20.80;42.11
34983;BME280;21187;50.976;13.720;2023-06-14T07:54:09;98382.22;;;20.92;41.81
34983;BME280;21187;50.976;13.720;2023-06-14T07:59:11;98380.41;;;21.09;41.27
34983;BME280;21187;50.976;13.720;2023-06-14T08:04:16;98377.03;;;21.25;41.17
34983;BME280;21187;50.976;13.720;2023-06-14T08:09:19;98382.22;;;21.43;40.69
34983;BME280;21187;50.976;13.720;2023-06-14T08:14:21;98379.59;;;21.63;40.61
34983;BME280;21187;50.976;13.720;2023-06-14T08:19:22;98390.34;;;22.01;39.91
34983;BME280;21187;50.976;13.720;2023-06-14T08:24:24;98391.03;;;22.29;39.18
34983;BME280;21187;50.976;13.720;2023-06-14T08:29:26;98380.09;;;22.46;38.58
34983;BME280;21187;50.976;13.720;2023-06-14T08:34:30;98384.63;;;22.36;38.26
34983;BME280;21187;50.976;13.720;2023-06-14T08:39:32;98381.47;;;22.34;37.98
34983;BME280;21187;50.976;13.720;2023-06-14T08:44:34;98383.88;;;22.32;37.73
34983;BME280;21187;50.976;13.720;2023-06-14T08:49:37;98372.28;;;22.40;37.29
34983;BME280;21187;50.976;13.720;2023-06-14T08:54:41;98372.66;;;22.42;36.75
34983;BME280;21187;50.976;13.720;2023-06-14T08:59:48;98370.13;;;22.52;36.74
34983;BME280;21187;50.976;13.720;2023-06-14T09:04:54;98384.41;;;22.47;36.44
34983;BME280;21187;50.976;13.720;2023-06-14T09:10:12;98379.22;;;22.49;36.28
34983;BME280;21187;50.976;13.720;2023-06-14T09:15:14;98377.72;;;22.64;36.37
34983;BME280;21187;50.976;13.720;2023-06-14T09:20:16;98382.09;;;22.82;36.13
34983;BME280;21187;50.976;13.720;2023-06-14T09:25:21;98394.75;;;22.99;35.87
34983;BME280;21187;50.976;13.720;2023-06-14T09:30:39;98383.72;;;22.99;35.69
34983;BME280;21187;50.976;13.720;2023-06-14T09:35:41;98386.97;;;22.94;35.29
34983;BME280;21187;50.976;13.720;2023-06-14T09:40:43;98385.91;;;22.88;35.23
34983;BME280;21187;50.976;13.720;2023-06-14T09:45:45;98381.00;;;22.96;35.05
34983;BME280;21187;50.976;13.720;2023-06-14T09:50:50;98374.47;;;23.06;34.79
34983;BME280;21187;50.976;13.720;2023-06-14T09:55:54;98372.94;;;23.21;34.71
34983;BME280;21187;50.976;13.720;2023-06-14T10:00:59;98367.44;;;23.38;34.07
34983;BME280;21187;50.976;13.720;2023-06-14T10:06:02;98366.69;;;23.37;34.27
34983;BME280;21187;50.976;13.720;2023-06-14T10:11:07;98367.19;;;23.49;33.60
34983;BME280;21187;50.976;13.720;2023-06-14T10:26:54;98371.47;;;23.66;33.67
34983;BME280;21187;50.976;13.720;2023-06-14T10:32:00;98373.56;;;23.79;33.52
34983;BME280;21187;50.976;13.720;2023-06-14T10:37:11;98372.41;;;23.92;33.74
34983;BME280;21187;50.976;13.720;2023-06-14T10:42:14;98377.88;;;23.96;33.82
34983;BME280;21187;50.976;13.720;2023-06-14T10:47:33;98365.59;;;23.81;33.57
34983;BME280;21187;50.976;13.720;2023-06-14T10:52:42;98373.22;;;23.60;33.91
34983;BME280;21187;50.976;13.720;2023-06-14T10:57:48;98368.38;;;23.64;34.30
34983;BME280;21187;50.976;13.720;2023-06-14T11:14:06;98348.38;;;24.06;33.22
34983;BME280;21187;50.976;13.720;2023-06-14T11:19:08;98361.09;;;24.03;33.23
34983;BME280;21187;50.976;13.720;2023-06-14T11:24:10;98348.91;;;24.01;33.43
34983;BME280;21187;50.976;13.720;2023-06-14T11:29:15;98349.88;;;23.94;33.07
34983;BME280;21187;50.976;13.720;2023-06-14T11:34:17;98352.31;;;23.75;33.49
34983;BME280;21187;50.976;13.720;2023-06-14T11:39:24;98354.91;;;23.66;33.60
34983;BME280;21187;50.976;13.720;2023-06-14T11:44:26;98367.97;;;23.49;33.59
34983;BME280;21187;50.976;13.720;2023-06-14T11:49:28;98369.78;;;23.39;33.95
34983;BME280;21187;50.976;13.720;2023-06-14T11:54:31;98368.03;;;23.29;34.41
34983;BME280;21187;50.976;13.720;2023-06-14T11:59:40;98363.91;;;23.21;34.51
34983;BME280;21187;50.976;13.720;2023-06-14T12:04:47;98359.25;;;23.18;34.49
34983;BME280;21187;50.976;13.720;2023-06-14T12:14:55;98353.28;;;23.19;34.87
34983;BME280;21187;50.976;13.720;2023-06-14T12:20:06;98348.63;;;23.33;34.86
34983;BME280;21187;50.976;13.720;2023-06-14T12:25:30;98350.34;;;23.43;34.71
34983;BME280;21187;50.976;13.720;2023-06-14T12:30:35;98351.31;;;23.36;35.01
34983;BME280;21187;50.976;13.720;2023-06-14T12:35:37;98354.59;;;23.31;34.93
34983;BME280;21187;50.976;13.720;2023-06-14T12:40:39;98364.59;;;23.25;34.94
34983;BME280;21187;50.976;13.720;2023-06-14T12:45:41;98354.41;;;23.22;35.17
34983;BME280;21187;50.976;13.720;2023-06-14T12:50:43;98354.56;;;23.15;35.22
34983;BME280;21187;50.976;13.720;2023-06-14T12:55:44;98357.94;;;23.22;35.14
34983;BME280;21187;50.976;13.720;2023-06-14T13:00:47;98345.41;;;23.34;35.01
34983;BME280;21187;50.976;13.720;2023-06-14T13:05:49;98342.66;;;23.51;34.94
34983;BME280;21187;50.976;13.720;2023-06-14T13:10:51;98331.13;;;23.69;34.78
34983;BME280;21187;50.976;13.720;2023-06-14T13:15:53;98332.94;;;23.92;34.53
34983;BME280;21187;50.976;13.720;2023-06-14T13:20:54;98333.63;;;23.96;34.59
34983;BME280;21187;50.976;13.720;2023-06-14T13:25:56;98335.34;;;23.90;34.63
34983;BME280;21187;50.976;13.720;2023-06-14T13:30:58;98336.78;;;23.65;35.01
34983;BME280;21187;50.976;13.720;2023-06-14T13:36:00;98334.97;;;23.42;35.22
34983;BME280;21187;50.976;13.720;2023-06-14T13:41:02;98331.34;;;23.29;35.43
34983;BME280;21187;50.976;13.720;2023-06-14T13:46:04;98321.94;;;23.42;35.53
34983;BME280;21187;50.976;13.720;2023-06-14T13:51:06;98319.31;;;23.68;35.14
34983;BME280;21187;50.976;13.720;2023-06-14T13:56:08;98320.13;;;23.98;34.77
34983;BME280;21187;50.976;13.720;2023-06-14T14:01:11;98323.56;;;23.86;34.95
34983;BME280;21187;50.976;13.720;2023-06-14T14:06:13;98331.50;;;23.54;35.24
34983;BME280;21187;50.976;13.720;2023-06-14T14:11:15;98320.22;;;23.32;35.61
34983;BME280;21187;50.976;13.720;2023-06-14T14:16:17;98324.34;;;23.24;35.48
34983;BME280;21187;50.976;13.720;2023-06-14T14:21:20;98316.94;;;23.37;34.99
34983;BME280;21187;50.976;13.720;2023-06-14T14:26:22;98311.53;;;23.63;34.49
34983;BME280;21187;50.976;13.720;2023-06-14T14:31:25;98314.28;;;23.80;34.32
34983;BME280;21187;50.976;13.720;2023-06-14T14:36:27;98306.63;;;24.00;34.11
34983;BME280;21187;50.976;13.720;2023-06-14T14:41:29;98311.97;;;24.07;33.96
34983;BME280;21187;50.976;13.720;2023-06-14T14:46:31;98315.28;;;24.02;33.58
34983;BME280;21187;50.976;13.720;2023-06-14T14:51:33;98322.13;;;23.81;33.98
34983;BME280;21187;50.976;13.720;2023-06-14T14:56:35;98313.03;;;23.81;33.81
34983;BME280;21187;50.976;13.720;2023-06-14T15:01:37;98307.50;;;23.81;33.81
34983;BME280;21187;50.976;13.720;2023-06-14T15:06:39;98297.91;;;23.85;33.52
34983;BME280;21187;50.976;13.720;2023-06-14T15:11:44;98297.13;;;24.01;33.00
34983;BME280;21187;50.976;13.720;2023-06-14T15:16:46;98302.47;;;24.08;32.95
34983;BME280;21187;50.976;13.720;2023-06-14T15:21:48;98298.59;;;24.19;33.15
34983;BME280;21187;50.976;13.720;2023-06-14T15:26:50;98300.28;;;24.29;32.59
34983;BME280;21187;50.976;13.720;2023-06-14T15:31:52;98302.03;;;24.23;32.28
34983;BME280;21187;50.976;13.720;2023-06-14T15:36:56;98301.59;;;24.12;32.29
34983;BME280;21187;50.976;13.720;2023-06-14T15:41:59;98302.66;;;24.01;32.23
34983;BME280;21187;50.976;13.720;2023-06-14T15:47:00;98302.88;;;23.94;32.15
34983;BME280;21187;50.976;13.720;2023-06-14T15:52:02;98297.47;;;23.87;31.94
34983;BME280;21187;50.976;13.720;2023-06-14T15:57:04;98298.19;;;23.91;32.07
34983;BME280;21187;50.976;13.720;2023-06-14T16:02:07;98299.97;;;23.98;31.97
34983;BME280;21187;50.976;13.720;2023-06-14T16:07:10;98282.94;;;23.99;32.32
34983;BME280;21187;50.976;13.720;2023-06-14T16:12:14;98293.72;;;24.10;31.95
34983;BME280;21187;50.976;13.720;2023-06-14T16:17:17;98284.09;;;24.15;31.87
34983;BME280;21187;50.976;13.720;2023-06-14T16:22:19;98298.28;;;24.17;31.50
34983;BME280;21187;50.976;13.720;2023-06-14T16:27:21;98291.84;;;24.20;31.26
34983;BME280;21187;50.976;13.720;2023-06-14T16:32:22;98295.84;;;24.19;30.82
34983;BME280;21187;50.976;13.720;2023-06-14T16:37:24;98294.50;;;24.11;30.69
34983;BME280;21187;50.976;13.720;2023-06-14T16:42:26;98294.16;;;24.08;30.83
34983;BME280;21187;50.976;13.720;2023-06-14T16:47:28;98298.59;;;24.06;31.00
34983;BME280;21187;50.976;13.720;2023-06-14T16:52:30;98305.94;;;23.96;30.96
34983;BME280;21187;50.976;13.720;2023-06-14T16:57:32;98307.88;;;23.83;31.22
34983;BME280;21187;50.976;13.720;2023-06-14T17:02:34;98318.00;;;23.89;30.68
34983;BME280;21187;50.976;13.720;2023-06-14T17:07:38;98306.47;;;23.91;31.01
34983;BME280;21187;50.976;13.720;2023-06-14T17:12:39;98316.00;;;23.90;30.89
34983;BME280;21187;50.976;13.720;2023-06-14T17:17:42;98322.72;;;23.89;30.90
34983;BME280;21187;50.976;13.720;2023-06-14T17:22:44;98323.56;;;23.86;30.91
34983;BME280;21187;50.976;13.720;2023-06-14T17:27:46;98326.53;;;23.79;31.05
34983;BME280;21187;50.976;13.720;2023-06-14T17:32:48;98330.72;;;23.70;31.06
34983;BME280;21187;50.976;13.720;2023-06-14T17:37:50;98338.31;;;23.66;31.13
34983;BME280;21187;50.976;13.720;2023-06-14T17:42:52;98327.78;;;23.61;31.04
34983;BME280;21187;50.976;13.720;2023-06-14T17:47:54;98326.41;;;23.53;31.26
34983;BME280;21187;50.976;13.720;2023-06-14T17:52:56;98328.56;;;23.45;31.37
34983;BME280;21187;50.976;13.720;2023-06-14T17:57:58;98327.47;;;23.42;31.26
34983;BME280;21187;50.976;13.720;2023-06-14T18:02:59;98335.41;;;23.40;31.58
34983;BME280;21187;50.976;13.720;2023-06-14T18:08:03;98336.59;;;23.39;31.52
34983;BME280;21187;50.976;13.720;2023-06-14T18:13:07;98339.03;;;23.37;31.68
34983;BME280;21187;50.976;13.720;2023-06-14T18:18:11;98342.31;;;23.32;31.95
34983;BME280;21187;50.976;13.720;2023-06-14T18:23:13;98341.28;;;23.26;31.95
34983;BME280;21187;50.976;13.720;2023-06-14T18:28:16;98349.75;;;23.19;32.08
34983;BME280;21187;50.976;13.720;2023-06-14T18:33:18;98358.59;;;23.10;32.07
34983;BME280;21187;50.976;13.720;2023-06-14T18:38:22;98352.09;;;23.00;32.30
34983;BME280;21187;50.976;13.720;2023-06-14T18:43:24;98361.41;;;22.90;32.42
34983;BME280;21187;50.976;13.720;2023-06-14T18:48:26;98365.25;;;22.76;32.61
34983;BME280;21187;50.976;13.720;2023-06-14T18:53:29;98359.53;;;22.67;33.03
34983;BME280;21187;50.976;13.720;2023-06-14T18:58:32;98358.22;;;22.55;33.26
34983;BME280;21187;50.976;13.720;2023-06-14T19:03:34;98367.47;;;22.44;33.46
34983;BME280;21187;50.976;13.720;2023-06-14T19:08:36;98370.41;;;22.37;33.66
34983;BME280;21187;50.976;13.720;2023-06-14T19:13:40;98369.28;;;22.31;33.95
34983;BME280;21187;50.976;13.720;2023-06-14T19:18:42;98367.03;;;22.26;34.28
34983;BME280;21187;50.976;13.720;2023-06-14T19:23:45;98374.59;;;22.22;34.27
34983;BME280;21187;50.976;13.720;2023-06-14T19:28:47;98369.22;;;22.15;34.15
34983;BME280;21187;50.976;13.720;2023-06-14T19:33:50;98386.28;;;22.09;34.37
34983;BME280;21187;50.976;13.720;2023-06-14T19:38:55;98378.47;;;22.04;34.55
34983;BME280;21187;50.976;13.720;2023-06-14T19:43:57;98388.44;;;21.98;34.71
34983;BME280;21187;50.976;13.720;2023-06-14T19:48:59;98390.97;;;21.89;34.94
34983;BME280;21187;50.976;13.720;2023-06-14T19:54:01;98396.25;;;21.80;35.10
34983;BME280;21187;50.976;13.720;2023-06-14T19:59:04;98392.88;;;21.68;35.45
34983;BME280;21187;50.976;13.720;2023-06-14T20:04:06;98404.88;;;21.58;35.83
34983;BME280;21187;50.976;13.720;2023-06-14T20:09:08;98407.28;;;21.52;35.76
34983;BME280;21187;50.976;13.720;2023-06-14T20:14:15;98408.88;;;21.50;35.83
34983;BME280;21187;50.976;13.720;2023-06-14T20:19:17;98412.16;;;21.44;35.91
34983;BME280;21187;50.976;13.720;2023-06-14T20:24:19;98420.09;;;21.39;35.95
34983;BME280;21187;50.976;13.720;2023-06-14T20:29:22;98428.09;;;21.30;36.29
34983;BME280;21187;50.976;13.720;2023-06-14T20:34:24;98427.41;;;21.22;36.40
34983;BME280;21187;50.976;13.720;2023-06-14T20:39:26;98429.13;;;21.12;36.64
34983;BME280;21187;50.976;13.720;2023-06-14T20:44:27;98422.94;;;21.04;36.67
34983;BME280;21187;50.976;13.720;2023-06-14T20:49:31;98419.91;;;20.95;36.98
34983;BME280;21187;50.976;13.720;2023-06-14T20:54:37;98413.75;;;20.84;37.26
34983;BME280;21187;50.976;13.720;2023-06-14T20:59:41;98413.19;;;20.65;37.51
34983;BME280;21187;50.976;13.720;2023-06-14T21:04:44;98415.28;;;20.54;37.83
34983;BME280;21187;50.976;13.720;2023-06-14T21:09:46;98417.00;;;20.40;38.06
34983;BME280;21187;50.976;13.720;2023-06-14T21:14:48;98421.47;;;20.27;38.30
34983;BME280;21187;50.976;13.720;2023-06-14T21:19:50;98412.16;;;20.14;38.63
34983;BME280;21187;50.976;13.720;2023-06-14T21:24:52;98414.63;;;20.04;38.75
34983;BME280;21187;50.976;13.720;2023-06-14T21:29:54;98423.28;;;20.03;38.85
34983;BME280;21187;50.976;13.720;2023-06-14T21:34:57;98415.63;;;19.79;39.45
34983;BME280;21187;50.976;13.720;2023-06-14T21:39:59;98421.44;;;19.36;40.28
34983;BME280;21187;50.976;13.720;2023-06-14T21:45:05;98414.63;;;18.92;41.15
34983;BME280;21187;50.976;13.720;2023-06-14T21:50:10;98424.88;;;18.73;41.42
34983;BME280;21187;50.976;13.720;2023-06-14T21:55:12;98415.81;;;18.80;41.23
34983;BME280;21187;50.976;13.720;2023-06-14T22:00:15;98408.72;;;18.97;40.93
34983;BME280;21187;50.976;13.720;2023-06-14T22:05:17;98408.28;;;19.06;40.77
34983;BME280;21187;50.976;13.720;2023-06-14T22:10:19;98410.63;;;19.11;40.63
34983;BME280;21187;50.976;13.720;2023-06-14T22:15:21;98413.44;;;18.97;41.05
34983;BME280;21187;50.976;13.720;2023-06-14T22:20:24;98424.47;;;18.78;41.49
34983;BME280;21187;50.976;13.720;2023-06-14T22:25:30;98416.28;;;18.68;41.80
34983;BME280;21187;50.976;13.720;2023-06-14T22:30:32;98424.97;;;18.52;41.82
34983;BME280;21187;50.976;13.720;2023-06-14T22:35:37;98423.75;;;18.53;41.83
34983;BME280;21187;50.976;13.720;2023-06-14T22:40:40;98421.41;;;18.55;41.78
34983;BME280;21187;50.976;13.720;2023-06-14T22:45:42;98423.78;;;18.45;42.16
34983;BME280;21187;50.976;13.720;2023-06-14T22:50:44;98424.97;;;18.44;42.02
34983;BME280;21187;50.976;13.720;2023-06-14T22:55:46;98422.66;;;18.32;42.31
34983;BME280;21187;50.976;13.720;2023-06-14T23:00:48;98411.34;;;18.05;42.94
34983;BME280;21187;50.976;13.720;2023-06-14T23:05:50;98416.44;;;17.85;43.36
34983;BME280;21187;50.976;13.720;2023-06-14T23:10:52;98421.13;;;17.73;43.60
34983;BME280;21187;50.976;13.720;2023-06-14T23:15:55;98419.16;;;17.67;43.67
34983;BME280;21187;50.976;13.720;2023-06-14T23:20:56;98427.41;;;17.59;43.87
34983;BME280;21187;50.976;13.720;2023-06-14T23:25:58;98438.34;;;17.59;43.91
34983;BME280;21187;50.976;13.720;2023-06-14T23:31:04;98422.31;;;17.65;43.75
34983;BME280;21187;50.976;13.720;2023-06-14T23:36:09;98422.69;;;17.74;43.38
34983;BME280;21187;50.976;13.720;2023-06-14T23:41:11;98409.41;;;17.69;43.48
34983;BME280;21187;50.976;13.720;2023-06-14T23:46:12;98417.22;;;17.45;43.94
34983;BME280;21187;50.976;13.720;2023-06-14T23:51:17;98410.13;;;17.16;44.63
34983;BME280;21187;50.976;13.720;2023-06-14T23:56:20;98405.41;;;17.02;45.13
